createdAt,value
2022-11-08T00:02:04.949Z,9.17
2022-11-08T00:04:38.192Z,8.17
2022-11-08T00:07:28.080Z,8.63
2022-11-08T00:10:20.328Z,9.77
2022-11-08T00:13:10.097Z,8.10
2022-11-08T00:15:39.532Z,8.37
2022-11-08T00:18:15.977Z,9.27
2022-11-08T00:20:45.672Z,9.33
2022-11-08T00:23:16.252Z,11.70
2022-11-08T00:25:43.602Z,9.97
2022-11-08T00:28:15.659Z,8.30
2022-11-08T00:30:53.970Z,9.97
2022-11-08T00:33:28.985Z,8.63
2022-11-08T00:35:59.803Z,8.27
2022-11-08T00:38:28.568Z,6.97
2022-11-08T00:41:01.121Z,6.97
2022-11-08T00:43:32.063Z,8.37
2022-11-08T00:46:01.888Z,7.50
2022-11-08T00:48:37.975Z,8.37
2022-11-08T00:51:10.883Z,9.93
2022-11-08T00:56:31.068Z,7.33
2022-11-08T00:59:00.115Z,8.50
2022-11-08T01:04:12.855Z,6.10
2022-11-08T01:06:42.760Z,7.30
2022-11-08T01:09:34.285Z,6.33
2022-11-08T01:12:01.666Z,6.90
2022-11-08T01:19:59.798Z,7.50
2022-11-08T01:27:52.717Z,8.60
2022-11-08T01:30:23.311Z,8.93
2022-11-08T01:32:52.930Z,7.40
2022-11-08T01:35:24.213Z,7.83
2022-11-08T01:37:53.961Z,7.33
2022-11-08T01:40:21.740Z,6.87
2022-11-08T01:42:51.769Z,6.93
2022-11-08T01:45:58.153Z,7.73
2022-11-08T01:48:28.120Z,8.50
2022-11-08T01:51:01.531Z,6.70
2022-11-08T01:53:38.709Z,5.77
2022-11-08T01:56:10.924Z,7.07
2022-11-08T01:58:41.764Z,5.53
2022-11-08T02:01:14.660Z,5.83
2022-11-08T02:06:27.960Z,5.87
2022-11-08T02:09:02.998Z,5.40
2022-11-08T02:11:41.603Z,6.27
2022-11-08T02:14:19.585Z,6.13
2022-11-08T02:16:50.243Z,6.77
2022-11-08T02:19:33.562Z,6.60
2022-11-08T02:22:15.320Z,5.93
2022-11-08T02:27:28.689Z,8.63
2022-11-08T02:30:04.784Z,7.97
2022-11-08T02:32:46.284Z,8.27
2022-11-08T02:35:18.923Z,8.53
2022-11-08T02:37:47.938Z,8.10
2022-11-08T02:40:15.777Z,8.73
2022-11-08T02:42:46.324Z,8.07
2022-11-08T02:45:13.948Z,9.37
2022-11-08T02:47:52.835Z,8.47
2022-11-08T02:50:23.065Z,8.27
2022-11-08T02:52:54.662Z,7.03
2022-11-08T02:55:25.170Z,6.87
2022-11-08T02:57:55.179Z,7.53
2022-11-08T03:00:25.474Z,7.43
2022-11-08T03:02:56.826Z,7.33
2022-11-08T03:05:29.717Z,7.60
2022-11-08T03:07:58.360Z,6.93
2022-11-08T03:13:13.109Z,6.73
2022-11-08T03:15:43.932Z,6.60
2022-11-08T03:18:13.847Z,6.40
2022-11-08T03:20:44.202Z,6.53
2022-11-08T03:25:53.542Z,6.20
2022-11-08T03:28:23.289Z,6.57
2022-11-08T03:30:53.222Z,6.30
2022-11-08T03:36:17.430Z,6.70
2022-11-08T03:38:48.742Z,5.80
2022-11-08T03:44:02.594Z,8.80
2022-11-08T03:46:33.142Z,7.87
2022-11-08T03:49:04.531Z,6.83
2022-11-08T03:51:34.391Z,6.70
2022-11-08T03:54:04.545Z,8.63
2022-11-08T03:56:35.575Z,7.83
2022-11-08T03:59:06.687Z,6.53
2022-11-08T04:01:38.452Z,7.20
2022-11-08T04:04:09.353Z,7.07
2022-11-08T04:06:39.102Z,6.87
2022-11-08T04:09:08.422Z,7.47
2022-11-08T04:11:59.404Z,9.00
2022-11-08T04:14:49.024Z,7.40
2022-11-08T04:17:18.518Z,6.37
2022-11-08T04:20:09.612Z,7.90
2022-11-08T04:22:40.265Z,7.07
2022-11-08T04:25:11.005Z,5.80
2022-11-08T04:27:38.600Z,5.37
2022-11-08T04:32:47.641Z,6.30
2022-11-08T04:40:45.798Z,6.37
2022-11-08T04:43:17.556Z,7.27
2022-11-08T04:48:30.834Z,7.17
2022-11-08T04:51:07.135Z,6.37
2022-11-08T04:53:35.275Z,6.60
2022-11-08T04:56:24.586Z,5.87
2022-11-08T04:58:59.102Z,7.60
2022-11-08T05:01:34.060Z,8.70
2022-11-08T05:04:11.600Z,7.00
2022-11-08T05:09:26.104Z,6.00
2022-11-08T05:14:39.233Z,5.93
2022-11-08T05:17:10.148Z,7.13
2022-11-08T05:19:58.379Z,5.67
2022-11-08T05:22:50.825Z,7.33
2022-11-08T05:25:18.561Z,5.70
2022-11-08T05:30:31.374Z,8.10
2022-11-08T05:33:06.980Z,5.57
2022-11-08T05:35:38.481Z,5.70
2022-11-08T05:38:20.517Z,5.70
2022-11-08T05:40:56.276Z,6.20
2022-11-08T05:43:24.519Z,8.47
2022-11-08T05:45:51.915Z,8.93
2022-11-08T05:48:23.001Z,8.60
2022-11-08T05:50:53.695Z,15.57
2022-11-08T05:53:27.881Z,10.77
2022-11-08T05:56:08.918Z,13.63
2022-11-08T05:58:40.733Z,16.93
2022-11-08T06:01:16.846Z,21.50
2022-11-08T06:03:52.199Z,25.43
2022-11-08T06:09:13.610Z,29.80
2022-11-08T06:11:43.168Z,27.77
2022-11-08T06:14:21.420Z,36.40
2022-11-08T06:16:53.650Z,28.23
2022-11-08T06:19:22.995Z,35.33
2022-11-08T06:21:52.446Z,43.03
2022-11-08T06:24:23.118Z,44.43
2022-11-08T06:26:54.023Z,43.60
2022-11-08T06:29:33.057Z,36.00
2022-11-08T06:32:11.246Z,53.50
2022-11-08T06:34:40.637Z,28.80
2022-11-08T06:37:11.323Z,25.87
2022-11-08T06:39:42.071Z,32.83
2022-11-08T06:42:09.914Z,34.63
2022-11-08T06:44:40.201Z,50.40
2022-11-08T06:47:11.228Z,47.03
2022-11-08T06:49:41.572Z,34.83
2022-11-08T06:52:12.193Z,50.37
2022-11-08T06:54:42.019Z,38.77
2022-11-08T06:57:12.476Z,42.97
2022-11-08T06:59:43.232Z,22.90
2022-11-08T07:02:15.050Z,26.00
2022-11-08T07:04:52.499Z,28.23
2022-11-08T07:07:24.597Z,36.53
2022-11-08T07:09:57.399Z,31.30
2022-11-08T07:12:31.992Z,22.23
2022-11-08T07:15:05.052Z,23.10
2022-11-08T07:17:38.552Z,28.83
2022-11-08T07:20:08.917Z,23.43
2022-11-08T07:22:38.443Z,27.37
2022-11-08T07:25:09.511Z,26.10
2022-11-08T07:27:39.741Z,31.93
2022-11-08T07:30:20.364Z,26.63
2022-11-08T07:32:50.326Z,28.03
2022-11-08T07:40:48.149Z,29.47
2022-11-08T07:43:20.099Z,28.03
2022-11-08T07:46:09.678Z,29.80
2022-11-08T07:49:04.025Z,32.30
2022-11-08T07:51:33.240Z,34.00
2022-11-08T07:54:05.666Z,34.73
2022-11-08T08:02:05.575Z,42.77
2022-11-08T08:04:40.632Z,91.40
2022-11-08T08:09:52.065Z,80.20
2022-11-08T08:12:25.478Z,55.27
2022-11-08T08:14:56.017Z,62.13
2022-11-08T08:17:33.186Z,47.07
2022-11-08T08:20:03.089Z,43.50
2022-11-08T08:22:32.804Z,49.50
2022-11-08T08:25:03.500Z,43.97
2022-11-08T08:27:33.792Z,45.60
2022-11-08T08:33:21.957Z,41.87
2022-11-08T08:38:28.976Z,44.97
2022-11-08T08:43:42.230Z,56.60
2022-11-08T08:46:13.156Z,44.80
2022-11-08T08:48:45.882Z,52.90
2022-11-08T08:53:58.900Z,42.27
2022-11-08T08:56:31.826Z,40.57
2022-11-08T09:01:45.369Z,51.20
2022-11-08T09:04:16.137Z,43.03
2022-11-08T09:09:29.772Z,39.60
2022-11-08T09:12:00.806Z,39.23
2022-11-08T09:14:37.279Z,40.23
2022-11-08T09:17:08.071Z,51.33
2022-11-08T09:19:54.390Z,47.20
2022-11-08T09:22:27.948Z,51.20
2022-11-08T09:24:56.909Z,42.70
2022-11-08T09:27:27.821Z,44.83
2022-11-08T09:30:00.044Z,47.13
2022-11-08T09:35:13.851Z,40.67
2022-11-08T09:41:08.267Z,41.27
2022-11-08T09:44:21.159Z,41.37
2022-11-08T09:46:58.014Z,46.33
2022-11-08T09:49:41.731Z,46.63
2022-11-08T09:52:33.697Z,38.27
2022-11-08T09:55:54.741Z,44.00
2022-11-08T10:01:46.733Z,50.90
2022-11-08T10:04:28.201Z,43.60
2022-11-08T10:07:23.425Z,37.17
2022-11-08T10:10:36.205Z,37.87
2022-11-08T10:17:11.067Z,38.77
2022-11-08T10:20:12.610Z,34.73
2022-11-08T10:23:20.880Z,40.67
2022-11-08T10:26:11.323Z,36.23
2022-11-08T10:28:59.265Z,42.10
2022-11-08T10:31:34.947Z,41.97
2022-11-08T10:37:15.593Z,43.07
2022-11-08T10:40:00.511Z,39.23
2022-11-08T10:42:48.705Z,42.27
2022-11-08T10:45:16.865Z,40.10
2022-11-08T10:47:46.405Z,37.37
2022-11-08T10:50:51.445Z,37.43
2022-11-08T10:53:35.603Z,39.70
2022-11-08T10:58:54.925Z,39.77
2022-11-08T11:01:28.183Z,44.07
2022-11-08T11:09:28.290Z,37.00
2022-11-08T11:12:05.686Z,38.80
2022-11-08T11:14:39.860Z,39.00
2022-11-08T11:17:40.335Z,39.03
2022-11-08T11:20:23.350Z,41.03
2022-11-08T11:25:38.326Z,35.60
2022-11-08T11:28:09.184Z,37.83
2022-11-08T11:30:41.809Z,35.70
2022-11-08T11:33:36.987Z,37.03
2022-11-08T11:36:31.324Z,37.30
2022-11-08T11:39:38.004Z,39.07
2022-11-08T11:42:50.163Z,36.50
2022-11-08T11:45:44.300Z,38.60
2022-11-08T11:48:42.919Z,39.33
2022-11-08T11:51:21.109Z,40.50
2022-11-08T11:53:58.459Z,44.43
2022-11-08T11:56:56.168Z,45.37
2022-11-08T12:03:41.926Z,38.93
2022-11-08T12:06:48.002Z,36.50
2022-11-08T12:09:33.692Z,39.00
2022-11-08T12:12:34.365Z,31.80
2022-11-08T12:15:50.031Z,37.57
2022-11-08T12:18:56.900Z,35.07
2022-11-08T12:22:09.866Z,36.10
2022-11-08T12:25:12.205Z,34.53
2022-11-08T12:28:27.993Z,35.20
2022-11-08T12:31:41.307Z,33.97
2022-11-08T12:34:39.715Z,34.67
2022-11-08T12:37:41.827Z,34.50
2022-11-08T12:41:06.830Z,32.37
2022-11-08T12:44:12.579Z,32.80
2022-11-08T12:47:21.208Z,33.80
2022-11-08T12:50:34.862Z,35.13
2022-11-08T12:53:50.966Z,33.33
2022-11-08T12:59:45.157Z,35.23
2022-11-08T13:02:35.935Z,36.30
2022-11-08T13:05:33.938Z,36.77
2022-11-08T13:08:34.852Z,36.03
2022-11-08T13:11:22.295Z,35.13
2022-11-08T13:13:59.106Z,36.83
2022-11-08T13:16:47.737Z,34.30
2022-11-08T13:19:52.300Z,34.90
2022-11-08T13:22:44.331Z,34.77
2022-11-08T13:25:13.978Z,35.57
2022-11-08T13:27:45.286Z,38.83
2022-11-08T13:30:16.484Z,36.13
2022-11-08T13:33:10.533Z,34.73
2022-11-08T13:39:39.393Z,35.47
2022-11-08T13:42:23.566Z,36.40
2022-11-08T13:45:33.637Z,36.47
2022-11-08T13:48:35.088Z,39.40
2022-11-08T13:51:43.158Z,35.20
2022-11-08T13:54:52.762Z,35.30
2022-11-08T13:58:10.613Z,35.73
2022-11-08T14:00:52.690Z,36.60
2022-11-08T14:03:52.985Z,35.20
2022-11-08T14:10:46.383Z,37.27
2022-11-08T14:13:41.019Z,35.50
2022-11-08T14:16:16.066Z,38.97
2022-11-08T14:18:46.590Z,37.53
2022-11-08T14:21:21.377Z,39.83
2022-11-08T14:23:51.261Z,37.47
2022-11-08T14:26:23.247Z,38.77
2022-11-08T14:29:01.069Z,41.30
2022-11-08T14:31:37.682Z,38.77
2022-11-08T14:34:28.640Z,39.20
2022-11-08T14:37:36.762Z,40.17
2022-11-08T14:40:20.764Z,40.60
2022-11-08T14:42:53.854Z,39.03
2022-11-08T14:45:29.359Z,37.03
2022-11-08T14:48:18.452Z,39.90
2022-11-08T14:50:47.480Z,37.10
2022-11-08T14:54:03.414Z,39.20
2022-11-08T14:56:45.525Z,40.17
2022-11-08T14:59:25.229Z,45.40
2022-11-08T15:02:01.961Z,40.23
2022-11-08T15:04:40.300Z,44.67
2022-11-08T15:07:13.702Z,41.97
2022-11-08T15:09:42.889Z,42.30
2022-11-08T15:12:26.213Z,38.40
2022-11-08T15:15:06.100Z,37.60
2022-11-08T15:17:41.663Z,37.77
2022-11-08T15:20:24.214Z,39.80
2022-11-08T15:22:58.333Z,40.63
2022-11-08T15:25:35.791Z,38.67
2022-11-08T15:28:29.150Z,35.53
2022-11-08T15:31:29.714Z,40.17
2022-11-08T15:34:01.147Z,39.03
2022-11-08T15:36:41.690Z,40.77
2022-11-08T15:40:03.373Z,38.60
2022-11-08T15:43:03.553Z,39.27
2022-11-08T15:45:35.831Z,35.83
2022-11-08T15:48:43.482Z,43.87
2022-11-08T15:51:18.607Z,41.17
2022-11-08T15:54:03.134Z,41.43
2022-11-08T15:56:37.147Z,39.50
2022-11-08T15:59:21.641Z,35.60
2022-11-08T16:01:58.696Z,42.23
2022-11-08T16:04:34.210Z,41.60
2022-11-08T16:07:09.081Z,44.30
2022-11-08T16:09:41.860Z,44.93
2022-11-08T16:12:18.862Z,43.97
2022-11-08T16:14:59.832Z,41.70
2022-11-08T16:17:35.958Z,43.63
2022-11-08T16:38:39.206Z,44.33
2022-11-08T16:41:25.049Z,46.47
2022-11-08T16:43:57.116Z,44.00
2022-11-08T16:46:33.314Z,48.53
2022-11-08T16:49:09.060Z,44.60
2022-11-08T16:51:49.671Z,43.60
2022-11-08T16:54:26.150Z,42.83
2022-11-08T16:57:34.072Z,46.17
2022-11-08T17:03:05.612Z,45.40
2022-11-08T17:08:46.880Z,45.43
2022-11-08T17:11:31.341Z,44.80
2022-11-08T17:14:12.716Z,47.60
2022-11-08T17:16:48.233Z,45.57
2022-11-08T17:19:35.691Z,41.23
2022-11-08T17:22:08.042Z,42.00
2022-11-08T17:24:42.973Z,41.30
2022-11-08T17:30:03.316Z,47.47
2022-11-08T17:32:43.396Z,48.77
2022-11-08T17:35:19.843Z,48.30
2022-11-08T17:37:59.844Z,46.37
2022-11-08T17:40:33.932Z,46.97
2022-11-08T17:43:04.357Z,44.93
2022-11-08T17:48:23.948Z,48.93
2022-11-08T17:50:55.378Z,48.77
2022-11-08T17:53:27.765Z,46.67
2022-11-08T18:06:37.839Z,46.50
2022-11-08T18:09:24.904Z,42.90
2022-11-08T18:11:59.038Z,48.83
2022-11-08T18:14:39.412Z,51.90
2022-11-08T18:17:11.740Z,48.40
2022-11-08T18:19:45.588Z,45.23
2022-11-08T18:22:32.280Z,47.57
2022-11-08T18:25:09.076Z,48.23
2022-11-08T18:27:54.814Z,52.07
2022-11-08T18:30:31.891Z,49.00
2022-11-08T18:35:56.406Z,47.20
2022-11-08T18:38:29.265Z,44.10
2022-11-08T18:45:35.357Z,43.80
2022-11-08T18:51:09.046Z,44.03
2022-11-08T18:53:49.825Z,45.87
2022-11-08T18:59:17.362Z,40.33
2022-11-08T19:04:49.697Z,47.30
2022-11-08T19:07:21.330Z,49.03
2022-11-08T19:10:02.749Z,44.13
2022-11-08T19:12:35.669Z,44.17
2022-11-08T19:15:10.951Z,44.70
2022-11-08T19:17:52.199Z,42.17
2022-11-08T19:20:26.823Z,44.70
2022-11-08T19:22:59.432Z,48.43
2022-11-08T19:25:34.235Z,49.93
2022-11-08T19:28:06.014Z,45.27
2022-11-08T19:30:38.994Z,47.77
2022-11-08T19:36:16.742Z,56.73
2022-11-08T19:39:17.094Z,59.67
2022-11-08T19:41:47.989Z,50.60
2022-11-08T19:44:30.518Z,46.90
2022-11-08T19:49:47.570Z,46.73
2022-11-08T19:52:24.748Z,48.17
2022-11-08T19:55:07.884Z,51.13
2022-11-08T20:00:28.149Z,46.90
2022-11-08T20:03:24.712Z,46.10
2022-11-08T20:05:59.860Z,45.93
2022-11-08T20:11:28.398Z,42.07
2022-11-08T20:14:17.428Z,43.77
2022-11-08T20:17:07.868Z,43.00
2022-11-08T20:22:37.434Z,43.30
2022-11-08T20:25:09.431Z,48.37
2022-11-08T20:27:44.958Z,45.97
2022-11-08T20:30:24.364Z,44.40
2022-11-08T20:32:59.064Z,46.90
2022-11-08T20:35:31.400Z,47.73
2022-11-08T20:38:06.070Z,47.90
2022-11-08T20:40:38.650Z,49.83
2022-11-08T20:43:14.930Z,48.57
2022-11-08T20:48:30.850Z,47.23
2022-11-08T20:51:12.452Z,47.13
2022-11-08T20:53:54.716Z,54.10
2022-11-08T20:56:28.529Z,47.13
2022-11-08T20:59:32.507Z,52.57
2022-11-08T21:02:14.143Z,50.07
2022-11-08T21:04:53.218Z,52.33
2022-11-08T21:10:41.635Z,54.47
2022-11-08T21:16:52.610Z,49.17
2022-11-08T21:19:11.566Z,49.83
2022-11-08T21:21:41.373Z,50.30
2022-11-08T21:26:55.033Z,49.20
2022-11-08T21:29:26.010Z,46.70
2022-11-08T21:37:41.192Z,46.27
2022-11-08T21:40:12.008Z,48.33
2022-11-08T21:42:52.232Z,51.00
2022-11-08T21:45:27.245Z,48.53
2022-11-08T21:50:50.118Z,48.70
2022-11-08T21:53:18.673Z,54.67
2022-11-08T21:56:08.170Z,51.47
2022-11-08T21:58:43.713Z,50.43
2022-11-08T22:01:15.127Z,51.93
2022-11-08T22:03:43.318Z,51.50
2022-11-08T22:06:14.184Z,51.10
2022-11-08T22:11:26.368Z,49.60
2022-11-08T22:14:20.724Z,51.47
2022-11-08T22:16:51.241Z,54.73
2022-11-08T22:19:22.002Z,55.70
2022-11-08T22:22:06.695Z,59.17
2022-11-08T22:24:46.959Z,52.97
2022-11-08T22:30:16.690Z,54.83
2022-11-08T22:32:48.961Z,57.53
2022-11-08T22:35:23.656Z,56.77
2022-11-08T22:37:55.703Z,57.47
2022-11-08T22:40:28.217Z,58.90
2022-11-08T22:42:59.149Z,48.80
2022-11-08T22:45:29.905Z,53.97
2022-11-08T22:50:47.761Z,50.47
2022-11-08T22:53:20.745Z,49.27
2022-11-08T22:55:51.065Z,52.90
2022-11-08T23:01:15.008Z,51.37
2022-11-08T23:03:58.003Z,49.27
2022-11-08T23:06:27.761Z,51.50
2022-11-08T23:09:01.496Z,55.67
2022-11-08T23:11:51.898Z,58.87
2022-11-08T23:14:44.047Z,53.40
2022-11-08T23:17:19.303Z,49.43
2022-11-08T23:20:09.022Z,50.27
2022-11-08T23:23:07.168Z,48.43
2022-11-08T23:28:39.404Z,48.93
2022-11-08T23:31:46.396Z,57.23
2022-11-08T23:34:15.969Z,53.10
2022-11-08T23:36:49.171Z,52.80
2022-11-08T23:39:21.284Z,51.10
2022-11-08T23:44:52.713Z,57.00
2022-11-08T23:47:31.671Z,49.20
2022-11-08T23:50:04.200Z,56.67
2022-11-08T23:55:16.808Z,54.73
